createdAt,value
2018-08-28T00:00:43.298Z,3.53
2018-08-28T00:03:10.849Z,3.03
2018-08-28T00:05:38.381Z,3.53
2018-08-28T00:08:05.961Z,3.87
2018-08-28T00:10:33.516Z,5.93
2018-08-28T00:13:03.018Z,16.83
2018-08-28T00:15:30.545Z,5.90
2018-08-28T00:17:58.107Z,4.87
2018-08-28T00:20:25.640Z,3.80
2018-08-28T00:22:53.197Z,6.63
2018-08-28T00:25:20.757Z,9.63
2018-08-28T00:27:48.309Z,4.90
2018-08-28T00:30:15.844Z,4.83
2018-08-28T00:32:43.369Z,3.23
2018-08-28T00:35:10.941Z,2.93
2018-08-28T00:37:39.238Z,3.07
2018-08-28T00:40:06.797Z,10.70
2018-08-28T00:42:34.321Z,9.70
2018-08-28T00:45:01.879Z,5.70
2018-08-28T00:47:29.437Z,4.23
2018-08-28T00:49:57.732Z,5.27
2018-08-28T00:52:25.364Z,5.90
2018-08-28T00:54:52.873Z,12.97
2018-08-28T00:57:20.402Z,4.23
2018-08-28T00:59:47.964Z,6.80
2018-08-28T01:02:15.497Z,5.10
2018-08-28T01:04:43.053Z,4.90
2018-08-28T01:07:10.585Z,4.03
2018-08-28T01:09:38.153Z,5.43
2018-08-28T01:12:05.683Z,10.20
2018-08-28T01:14:33.262Z,3.63
2018-08-28T01:17:01.770Z,8.30
2018-08-28T01:19:29.297Z,4.70
2018-08-28T01:21:56.853Z,2.67
2018-08-28T01:24:24.388Z,3.33
2018-08-28T01:26:51.941Z,6.17
2018-08-28T01:29:20.442Z,4.20
2018-08-28T01:31:47.979Z,5.43
2018-08-28T01:34:15.536Z,4.77
2018-08-28T01:36:43.061Z,8.47
2018-08-28T01:39:10.623Z,5.63
2018-08-28T01:41:38.161Z,6.53
2018-08-28T01:44:05.690Z,6.30
2018-08-28T01:46:34.216Z,10.07
2018-08-28T01:49:01.744Z,8.73
2018-08-28T01:51:29.301Z,8.10
2018-08-28T01:53:56.830Z,4.23
2018-08-28T01:56:24.393Z,4.90
2018-08-28T01:58:51.921Z,5.47
2018-08-28T02:01:20.381Z,6.63
2018-08-28T02:03:49.877Z,7.40
2018-08-28T02:06:17.438Z,5.10
2018-08-28T02:08:44.990Z,4.53
2018-08-28T02:11:12.529Z,7.17
2018-08-28T02:13:40.089Z,5.27
2018-08-28T02:16:08.625Z,5.70
2018-08-28T02:18:36.154Z,8.80
2018-08-28T02:21:03.721Z,4.37
2018-08-28T02:23:31.250Z,3.93
2018-08-28T02:25:59.573Z,5.67
2018-08-28T02:28:27.102Z,12.40
2018-08-28T02:30:54.669Z,4.10
2018-08-28T02:33:22.227Z,10.07
2018-08-28T02:35:49.756Z,5.00
2018-08-28T02:38:17.304Z,3.80
2018-08-28T02:40:44.832Z,4.60
2018-08-28T02:43:12.396Z,5.47
2018-08-28T02:45:39.948Z,6.43
2018-08-28T02:48:07.492Z,5.53
2018-08-28T02:50:35.027Z,4.57
2018-08-28T02:53:02.589Z,4.53
2018-08-28T02:55:30.125Z,8.43
2018-08-28T02:57:57.681Z,5.20
2018-08-28T03:00:25.241Z,5.50
2018-08-28T03:02:52.840Z,6.07
2018-08-28T03:05:20.388Z,4.17
2018-08-28T03:07:47.894Z,5.00
2018-08-28T03:10:16.216Z,5.70
2018-08-28T03:12:44.708Z,5.03
2018-08-28T03:15:12.260Z,5.33
2018-08-28T03:17:41.790Z,6.63
2018-08-28T03:20:10.266Z,6.10
2018-08-28T03:22:37.825Z,4.60
2018-08-28T03:25:05.362Z,7.87
2018-08-28T03:27:32.930Z,3.50
2018-08-28T03:30:00.463Z,5.63
2018-08-28T03:32:27.997Z,6.63
2018-08-28T03:34:55.575Z,5.77
2018-08-28T03:37:23.104Z,7.30
2018-08-28T03:39:50.656Z,6.33
2018-08-28T03:42:18.181Z,3.83
2018-08-28T03:44:45.781Z,6.30
2018-08-28T03:47:13.317Z,7.33
2018-08-28T03:49:40.873Z,6.00
2018-08-28T03:52:09.357Z,4.73
2018-08-28T03:54:36.887Z,9.60
2018-08-28T03:57:04.450Z,9.37
2018-08-28T03:59:31.978Z,5.37
2018-08-28T04:01:59.532Z,10.10
2018-08-28T04:04:27.064Z,11.40
2018-08-28T04:06:54.590Z,5.97
2018-08-28T04:09:22.144Z,7.13
2018-08-28T04:11:49.709Z,5.13
2018-08-28T04:14:17.274Z,8.57
2018-08-28T04:16:44.805Z,5.97
2018-08-28T04:19:12.364Z,8.67
2018-08-28T04:21:40.667Z,9.10
2018-08-28T04:24:08.221Z,10.93
2018-08-28T04:26:35.784Z,6.87
2018-08-28T04:29:03.336Z,6.70
2018-08-28T04:31:30.870Z,6.37
2018-08-28T04:33:59.163Z,5.80
2018-08-28T04:36:26.715Z,8.97
2018-08-28T04:38:55.004Z,8.47
2018-08-28T04:41:22.557Z,7.03
2018-08-28T04:43:50.082Z,6.87
2018-08-28T04:46:17.608Z,7.63
2018-08-28T04:48:45.173Z,7.07
2018-08-28T04:51:12.768Z,5.27
2018-08-28T04:53:40.321Z,5.63
2018-08-28T04:56:07.844Z,5.40
2018-08-28T04:58:35.401Z,10.53
2018-08-28T05:01:02.932Z,5.80
2018-08-28T05:03:30.489Z,9.07
2018-08-28T05:05:58.048Z,5.40
2018-08-28T05:08:25.607Z,14.23
2018-08-28T05:10:53.136Z,8.33
2018-08-28T05:13:20.669Z,8.80
2018-08-28T05:15:48.232Z,19.30
2018-08-28T05:18:15.780Z,11.40
2018-08-28T05:20:44.341Z,10.40
2018-08-28T05:23:11.898Z,8.00
2018-08-28T05:25:39.430Z,9.20
2018-08-28T05:28:06.973Z,6.90
2018-08-28T05:30:34.659Z,8.07
2018-08-28T05:33:03.145Z,9.67
2018-08-28T05:35:30.697Z,8.73
2018-08-28T05:37:58.288Z,15.10
2018-08-28T05:40:25.810Z,7.23
2018-08-28T05:42:53.373Z,14.10
2018-08-28T05:45:20.913Z,10.30
2018-08-28T05:47:48.470Z,9.83
2018-08-28T05:50:16.007Z,9.30
2018-08-28T05:52:43.533Z,9.60
2018-08-28T05:55:11.090Z,9.40
2018-08-28T05:57:38.638Z,9.37
2018-08-28T06:00:06.192Z,9.83
2018-08-28T06:02:33.717Z,9.43
2018-08-28T06:05:01.274Z,8.07
2018-08-28T06:07:28.810Z,9.70
2018-08-28T06:09:56.345Z,15.43
2018-08-28T06:12:23.916Z,11.30
2018-08-28T06:14:51.457Z,9.47
2018-08-28T06:17:20.956Z,18.87
2018-08-28T06:19:49.258Z,15.43
2018-08-28T06:22:16.812Z,14.33
2018-08-28T06:24:45.307Z,17.63
2018-08-28T06:27:12.843Z,14.32
2018-08-28T06:29:40.397Z,15.63
2018-08-28T06:32:07.929Z,14.17
2018-08-28T06:34:35.489Z,14.33
2018-08-28T06:37:03.025Z,15.60
2018-08-28T06:39:30.583Z,9.27
2018-08-28T06:41:58.116Z,16.57
2018-08-28T06:44:25.672Z,11.37
2018-08-28T06:46:53.233Z,10.20
2018-08-28T06:49:20.769Z,11.53
2018-08-28T06:51:48.340Z,14.67
2018-08-28T06:54:15.873Z,8.00
2018-08-28T06:56:43.471Z,11.50
2018-08-28T06:59:11.003Z,9.57
2018-08-28T07:01:38.622Z,9.00
2018-08-28T07:04:06.181Z,8.50
2018-08-28T07:06:33.720Z,9.03
2018-08-28T07:09:01.288Z,9.73
2018-08-28T07:11:28.833Z,10.17
2018-08-28T07:13:56.394Z,10.43
2018-08-28T07:16:23.959Z,12.27
2018-08-28T07:18:51.680Z,16.97
2018-08-28T07:21:19.080Z,17.00
2018-08-28T07:23:47.381Z,13.57
2018-08-28T07:26:14.946Z,11.13
2018-08-28T07:28:42.485Z,18.50
2018-08-28T07:31:10.093Z,9.97
2018-08-28T07:33:37.648Z,10.10
2018-08-28T07:36:06.157Z,9.13
2018-08-28T07:38:33.693Z,9.53
2018-08-28T07:41:01.252Z,7.57
2018-08-28T07:43:28.796Z,9.40
2018-08-28T07:45:56.365Z,8.83
2018-08-28T07:48:24.942Z,9.50
2018-08-28T07:50:52.465Z,7.73
2018-08-28T07:53:20.027Z,12.23
2018-08-28T07:55:48.533Z,17.63
2018-08-28T07:58:16.097Z,8.13
2018-08-28T08:00:43.661Z,9.90
2018-08-28T08:03:11.224Z,18.03
2018-08-28T08:05:38.769Z,14.90
2018-08-28T08:08:06.313Z,11.63
2018-08-28T08:10:33.969Z,14.77
2018-08-28T08:13:01.444Z,26.13
2018-08-28T08:15:29.030Z,11.40
2018-08-28T08:17:56.590Z,11.03
2018-08-28T08:20:24.133Z,10.33
2018-08-28T08:22:52.474Z,9.03
2018-08-28T08:25:20.033Z,10.60
2018-08-28T08:27:47.617Z,11.87
2018-08-28T08:30:16.124Z,9.00
2018-08-28T08:32:44.649Z,12.00
2018-08-28T08:35:12.202Z,6.73
2018-08-28T08:37:39.758Z,12.57
2018-08-28T08:40:08.259Z,9.13
2018-08-28T08:42:35.825Z,8.47
2018-08-28T08:45:03.440Z,7.90
2018-08-28T08:47:30.965Z,8.07
2018-08-28T08:49:58.535Z,12.80
2018-08-28T08:52:26.072Z,21.57
2018-08-28T08:54:54.443Z,8.70
2018-08-28T08:57:24.796Z,10.87
2018-08-28T08:59:52.295Z,8.30
2018-08-28T09:02:19.880Z,8.90
2018-08-28T09:04:48.184Z,8.87
2018-08-28T09:07:15.730Z,9.70
2018-08-28T09:09:43.289Z,10.07
2018-08-28T09:12:10.835Z,18.50
2018-08-28T09:14:38.410Z,19.33
2018-08-28T09:17:05.945Z,13.90
2018-08-28T09:19:33.501Z,19.77
2018-08-28T09:22:01.807Z,14.67
2018-08-28T09:24:29.349Z,11.10
2018-08-28T09:26:56.904Z,11.73
2018-08-28T09:29:24.599Z,12.93
2018-08-28T09:31:52.176Z,9.33
2018-08-28T09:34:19.758Z,9.73
2018-08-28T09:36:48.054Z,8.53
2018-08-28T09:39:15.623Z,21.50
2018-08-28T09:41:43.156Z,19.20
2018-08-28T09:44:12.722Z,13.40
2018-08-28T09:46:40.268Z,12.97
2018-08-28T09:49:07.831Z,17.20
2018-08-28T09:51:35.373Z,13.33
2018-08-28T09:54:02.936Z,12.10
2018-08-28T09:56:30.533Z,15.23
2018-08-28T09:58:58.056Z,14.90
2018-08-28T10:01:25.625Z,12.50
2018-08-28T10:03:53.168Z,18.17
2018-08-28T10:06:20.738Z,10.60
2018-08-28T10:08:48.279Z,12.97
2018-08-28T10:11:15.923Z,15.77
2018-08-28T10:13:43.481Z,12.30
2018-08-28T10:16:11.057Z,15.23
2018-08-28T10:18:38.801Z,16.27
2018-08-28T10:21:06.348Z,17.77
2018-08-28T10:23:33.915Z,10.40
2018-08-28T10:26:01.552Z,13.90
2018-08-28T10:28:29.132Z,11.60
2018-08-28T10:30:56.665Z,10.40
2018-08-28T10:33:24.197Z,16.50
2018-08-28T10:35:52.535Z,18.80
2018-08-28T10:38:21.015Z,11.43
2018-08-28T10:40:48.588Z,15.77
2018-08-28T10:43:17.081Z,11.17
2018-08-28T10:45:45.416Z,10.00
2018-08-28T10:48:12.949Z,12.80
2018-08-28T10:50:40.508Z,11.00
2018-08-28T10:53:08.097Z,13.80
2018-08-28T10:55:35.675Z,11.63
2018-08-28T10:58:03.244Z,14.13
2018-08-28T11:00:30.774Z,12.53
2018-08-28T11:02:58.338Z,12.00
2018-08-28T11:05:25.893Z,14.00
2018-08-28T11:07:53.456Z,11.83
2018-08-28T11:10:20.995Z,12.63
2018-08-28T11:12:49.489Z,11.23
2018-08-28T11:15:17.062Z,14.80
2018-08-28T11:17:44.601Z,13.73
2018-08-28T11:20:12.169Z,10.50
2018-08-28T11:22:40.685Z,11.40
2018-08-28T11:25:08.426Z,10.80
2018-08-28T11:27:37.725Z,12.00
2018-08-28T11:30:06.068Z,12.77
2018-08-28T11:32:33.609Z,15.47
2018-08-28T11:35:03.053Z,10.67
2018-08-28T11:37:30.616Z,11.27
2018-08-28T11:39:58.929Z,11.83
2018-08-28T11:42:26.489Z,11.73
2018-08-28T11:44:55.008Z,12.13
2018-08-28T11:47:22.571Z,11.90
2018-08-28T11:49:50.140Z,9.93
2018-08-28T11:52:17.731Z,12.03
2018-08-28T11:54:45.290Z,9.10
2018-08-28T11:57:12.822Z,13.00
2018-08-28T11:59:41.342Z,11.00
2018-08-28T12:02:08.926Z,15.73
2018-08-28T12:04:36.496Z,16.37
2018-08-28T12:07:04.054Z,9.67
2018-08-28T12:09:32.364Z,12.50
2018-08-28T12:11:59.952Z,16.10
2018-08-28T12:14:27.493Z,11.57
2018-08-28T12:16:55.044Z,10.33
2018-08-28T12:19:22.590Z,13.37
2018-08-28T12:21:50.151Z,9.97
2018-08-28T12:24:17.693Z,14.90
2018-08-28T12:26:45.375Z,15.73
2018-08-28T12:29:12.816Z,10.27
2018-08-28T12:31:40.357Z,10.13
2018-08-28T12:34:07.917Z,9.87
2018-08-28T12:36:36.235Z,13.10
2018-08-28T12:39:03.801Z,9.70
2018-08-28T12:41:31.347Z,12.73
2018-08-28T12:43:58.919Z,9.77
2018-08-28T12:46:26.490Z,10.03
2018-08-28T12:48:54.053Z,9.30
2018-08-28T12:51:21.704Z,10.77
2018-08-28T12:53:49.158Z,14.20
2018-08-28T12:56:16.720Z,10.17
2018-08-28T12:58:44.253Z,17.40
2018-08-28T13:01:11.813Z,10.43
2018-08-28T13:03:40.345Z,11.57
2018-08-28T13:06:07.886Z,13.20
2018-08-28T13:08:36.204Z,11.50
2018-08-28T13:11:05.724Z,14.40
2018-08-28T13:13:33.258Z,15.70
2018-08-28T13:16:00.909Z,10.57
2018-08-28T13:18:29.454Z,12.23
2018-08-28T13:20:57.957Z,9.90
2018-08-28T13:23:27.482Z,13.07
2018-08-28T13:25:55.206Z,10.17
2018-08-28T13:28:22.724Z,10.07
2018-08-28T13:30:50.308Z,13.10
2018-08-28T13:33:19.597Z,11.00
2018-08-28T13:35:47.199Z,11.50
2018-08-28T13:38:14.852Z,10.50
2018-08-28T13:40:42.531Z,14.80
2018-08-28T13:43:10.731Z,12.07
2018-08-28T13:45:38.301Z,9.80
2018-08-28T13:48:05.843Z,9.80
2018-08-28T13:50:33.517Z,11.60
2018-08-28T13:53:01.065Z,14.57
2018-08-28T13:55:28.657Z,12.10
2018-08-28T13:57:57.008Z,10.80
2018-08-28T14:00:24.667Z,12.73
2018-08-28T14:02:52.257Z,13.40
2018-08-28T14:05:23.213Z,11.20
2018-08-28T14:07:50.818Z,14.80
2018-08-28T14:10:18.381Z,12.67
2018-08-28T14:12:45.961Z,11.87
2018-08-28T14:15:13.541Z,16.30
2018-08-28T14:17:41.103Z,9.83
2018-08-28T14:20:10.153Z,13.30
2018-08-28T14:22:37.903Z,14.77
2018-08-28T14:25:05.369Z,10.87
2018-08-28T14:27:32.954Z,11.57
2018-08-28T14:30:00.567Z,9.70
2018-08-28T14:32:28.124Z,11.00
2018-08-28T14:34:56.689Z,11.40
2018-08-28T14:37:24.281Z,10.80
2018-08-28T14:39:52.605Z,13.43
2018-08-28T14:42:20.171Z,9.70
2018-08-28T14:44:47.792Z,13.53
2018-08-28T14:47:15.417Z,12.53
2018-08-28T14:49:43.000Z,10.33
2018-08-28T14:52:10.590Z,13.80
2018-08-28T14:54:38.177Z,11.30
2018-08-28T14:57:05.771Z,18.73
2018-08-28T14:59:33.414Z,12.40
2018-08-28T15:02:00.996Z,11.77
2018-08-28T15:04:28.587Z,15.47
2018-08-28T15:06:56.265Z,12.20
2018-08-28T15:09:25.626Z,17.90
2018-08-28T15:11:53.173Z,14.67
2018-08-28T15:14:20.752Z,13.07
2018-08-28T15:16:48.538Z,17.90
2018-08-28T15:19:15.942Z,17.03
2018-08-28T15:21:45.485Z,11.60
2018-08-28T15:24:13.165Z,14.83
2018-08-28T15:26:40.929Z,12.60
2018-08-28T15:29:09.487Z,11.40
2018-08-28T15:31:37.061Z,10.03
2018-08-28T15:34:04.634Z,9.77
2018-08-28T15:36:33.182Z,11.80
2018-08-28T15:39:01.774Z,12.60
2018-08-28T15:41:29.313Z,11.00
2018-08-28T15:43:56.882Z,11.40
2018-08-28T15:46:24.474Z,14.40
2018-08-28T15:48:52.093Z,14.60
2018-08-28T15:51:19.699Z,10.80
2018-08-28T15:53:47.263Z,15.37
2018-08-28T15:56:14.854Z,10.97
2018-08-28T15:58:42.427Z,12.43
2018-08-28T16:01:10.008Z,9.83
2018-08-28T16:03:37.607Z,16.53
2018-08-28T16:06:05.209Z,11.33
2018-08-28T16:08:32.778Z,11.30
2018-08-28T16:11:00.345Z,11.97
2018-08-28T16:13:27.929Z,10.93
2018-08-28T16:15:55.539Z,17.60
2018-08-28T16:18:23.202Z,11.03
2018-08-28T16:20:51.525Z,15.57
2018-08-28T16:23:19.142Z,14.93
2018-08-28T16:25:46.725Z,18.20
2018-08-28T16:28:15.097Z,16.00
2018-08-28T16:30:43.422Z,15.38
2018-08-28T16:33:17.687Z,14.73
2018-08-28T16:35:46.374Z,14.37
2018-08-28T16:38:15.905Z,15.83
2018-08-28T16:40:44.410Z,13.00
2018-08-28T16:43:12.958Z,15.43
2018-08-28T16:45:40.643Z,16.77
2018-08-28T16:48:08.400Z,15.33
2018-08-28T16:50:36.959Z,12.37
2018-08-28T16:53:05.480Z,13.40
2018-08-28T16:55:33.078Z,14.83
2018-08-28T16:58:03.180Z,24.23
2018-08-28T17:00:34.971Z,15.27
2018-08-28T17:03:03.037Z,14.60
2018-08-28T17:05:30.622Z,15.17
2018-08-28T17:07:59.750Z,13.23
2018-08-28T17:10:27.387Z,16.90
2018-08-28T17:12:57.108Z,14.30
2018-08-28T17:15:24.686Z,15.97
2018-08-28T17:17:53.037Z,27.47
2018-08-28T17:20:21.729Z,13.97
2018-08-28T17:22:49.325Z,13.70
2018-08-28T17:25:17.991Z,15.20
2018-08-28T17:27:45.714Z,16.30
2018-08-28T17:30:14.594Z,20.33
2018-08-28T17:32:42.174Z,17.33
2018-08-28T17:35:09.799Z,15.40
2018-08-28T17:37:37.378Z,24.53
2018-08-28T17:40:04.991Z,13.73
2018-08-28T17:42:32.601Z,15.57
2018-08-28T17:45:00.242Z,16.10
2018-08-28T17:47:27.801Z,18.50
2018-08-28T17:49:55.405Z,17.10
2018-08-28T17:52:23.158Z,12.40
2018-08-28T17:54:50.804Z,13.10
2018-08-28T17:57:18.346Z,17.07
2018-08-28T17:59:45.913Z,25.73
2018-08-28T18:02:13.497Z,21.47
2018-08-28T18:04:41.869Z,13.63
2018-08-28T18:07:09.422Z,16.83
2018-08-28T18:09:37.016Z,14.00
2018-08-28T18:12:05.607Z,25.20
2018-08-28T18:14:33.164Z,12.90
2018-08-28T18:17:00.841Z,15.53
2018-08-28T18:19:28.432Z,13.10
2018-08-28T18:21:56.012Z,15.37
2018-08-28T18:24:23.574Z,17.23
2018-08-28T18:26:52.899Z,15.83
2018-08-28T18:29:20.458Z,15.80
2018-08-28T18:31:48.061Z,12.90
2018-08-28T18:34:16.386Z,16.83
2018-08-28T18:36:43.982Z,13.47
2018-08-28T18:39:12.521Z,18.23
2018-08-28T18:41:40.087Z,15.80
2018-08-28T18:44:08.311Z,15.43
2018-08-28T18:46:35.903Z,19.07
2018-08-28T18:49:03.496Z,17.97
2018-08-28T18:51:31.090Z,15.40
2018-08-28T18:54:01.412Z,22.50
2018-08-28T18:56:29.889Z,16.53
2018-08-28T18:58:57.490Z,23.83
2018-08-28T19:01:25.066Z,17.10
2018-08-28T19:03:52.690Z,13.20
2018-08-28T19:06:20.301Z,16.27
2018-08-28T19:08:48.649Z,16.80
2018-08-28T19:11:16.905Z,15.63
2018-08-28T19:13:44.513Z,13.70
2018-08-28T19:16:12.092Z,18.73
2018-08-28T19:18:40.449Z,15.30
2018-08-28T19:21:08.038Z,13.80
2018-08-28T19:23:36.581Z,13.83
2018-08-28T19:26:04.228Z,17.10
2018-08-28T19:28:32.555Z,19.57
2018-08-28T19:31:00.093Z,16.77
2018-08-28T19:33:28.917Z,17.57
2018-08-28T19:35:56.493Z,16.13
2018-08-28T19:38:24.095Z,16.27
2018-08-28T19:40:52.520Z,12.83
2018-08-28T19:43:20.120Z,13.30
2018-08-28T19:45:47.658Z,15.67
2018-08-28T19:48:15.235Z,13.03
2018-08-28T19:50:42.821Z,17.57
2018-08-28T19:53:10.409Z,17.73
2018-08-28T19:55:38.076Z,15.97
2018-08-28T19:58:05.669Z,18.40
2018-08-28T20:00:33.239Z,19.53
2018-08-28T20:03:00.851Z,21.27
2018-08-28T20:05:28.398Z,16.40
2018-08-28T20:07:55.953Z,15.50
2018-08-28T20:10:26.567Z,17.30
2018-08-28T20:12:54.137Z,19.83
2018-08-28T20:15:22.686Z,15.07
2018-08-28T20:17:50.253Z,15.83
2018-08-28T20:20:17.888Z,18.20
2018-08-28T20:22:46.228Z,19.30
2018-08-28T20:25:13.799Z,16.20
2018-08-28T20:27:41.381Z,14.80
2018-08-28T20:30:08.970Z,14.00
2018-08-28T20:32:36.514Z,16.00
2018-08-28T20:35:04.081Z,14.77
2018-08-28T20:37:31.810Z,15.80
2018-08-28T20:39:59.337Z,20.67
2018-08-28T20:42:27.864Z,20.63
2018-08-28T20:44:55.449Z,23.60
2018-08-28T20:47:23.031Z,21.50
2018-08-28T20:49:50.614Z,18.73
2018-08-28T20:52:18.160Z,20.57
2018-08-28T20:54:45.725Z,17.90
2018-08-28T20:57:13.299Z,16.13
2018-08-28T20:59:40.864Z,17.20
2018-08-28T21:02:09.353Z,19.30
2018-08-28T21:04:36.917Z,17.70
2018-08-28T21:07:04.485Z,18.17
2018-08-28T21:09:32.066Z,17.50
2018-08-28T21:11:59.604Z,16.10
2018-08-28T21:14:27.163Z,15.83
2018-08-28T21:16:54.727Z,22.53
2018-08-28T21:19:22.261Z,17.63
2018-08-28T21:21:49.824Z,21.73
2018-08-28T21:24:17.357Z,16.70
2018-08-28T21:26:44.893Z,19.03
2018-08-28T21:29:12.479Z,14.43
2018-08-28T21:31:40.034Z,14.90
2018-08-28T21:34:07.593Z,17.30
2018-08-28T21:36:36.097Z,17.80
2018-08-28T21:39:03.656Z,16.93
2018-08-28T21:41:31.223Z,16.20
2018-08-28T21:43:58.768Z,18.47
2018-08-28T21:46:26.330Z,16.10
2018-08-28T21:48:53.861Z,16.90
2018-08-28T21:51:21.393Z,17.03
2018-08-28T21:53:49.721Z,19.00
2018-08-28T21:56:17.285Z,18.33
2018-08-28T21:58:46.785Z,21.50
2018-08-28T22:01:14.333Z,19.12
2018-08-28T22:06:15.813Z,19.17
2018-08-28T22:08:43.372Z,20.83
2018-08-28T22:11:10.921Z,18.60
2018-08-28T22:13:38.481Z,15.80
2018-08-28T22:16:06.020Z,15.50
2018-08-28T22:18:33.598Z,20.40
2018-08-28T22:21:01.133Z,16.37
2018-08-28T22:23:28.661Z,14.80
2018-08-28T22:25:56.225Z,17.63
2018-08-28T22:28:23.763Z,19.00
2018-08-28T22:30:51.325Z,17.60
2018-08-28T22:33:19.820Z,22.17
2018-08-28T22:35:47.385Z,19.80
2018-08-28T22:38:14.917Z,18.00
2018-08-28T22:40:42.489Z,15.57
2018-08-28T22:43:10.048Z,20.83
2018-08-28T22:45:37.593Z,17.90
2018-08-28T22:48:05.156Z,17.37
2018-08-28T22:50:32.724Z,15.63
2018-08-28T22:53:00.281Z,15.80
2018-08-28T22:55:27.812Z,18.60
2018-08-28T22:57:56.149Z,18.57
2018-08-28T23:00:23.685Z,19.33
2018-08-28T23:02:51.257Z,17.87
2018-08-28T23:05:18.801Z,16.27
2018-08-28T23:07:48.301Z,15.47
2018-08-28T23:10:15.845Z,16.00
2018-08-28T23:12:43.409Z,17.00
2018-08-28T23:15:10.957Z,17.13
2018-08-28T23:17:38.492Z,18.67
2018-08-28T23:20:06.062Z,22.03
2018-08-28T23:22:33.631Z,20.33
2018-08-28T23:25:01.192Z,17.60
2018-08-28T23:27:28.731Z,19.50
2018-08-28T23:29:56.285Z,16.60
2018-08-28T23:32:23.857Z,20.63
2018-08-28T23:34:52.349Z,22.33
2018-08-28T23:37:19.918Z,18.53
2018-08-28T23:39:47.450Z,18.57
2018-08-28T23:42:15.949Z,21.60
2018-08-28T23:44:43.521Z,21.60
2018-08-28T23:47:11.056Z,17.50
2018-08-28T23:49:40.593Z,18.10
2018-08-28T23:52:08.130Z,21.47
2018-08-28T23:54:37.641Z,23.73
2018-08-28T23:57:05.181Z,17.93
2018-08-28T23:59:32.717Z,20.00
